KLCH/LCH METAR and TAF weather

Enter ICAO airport designator
Station Type Date Time Source
KLCH METAR 2019/04/24 15:53 UTC NOAA

KLCH 241553Z 14012KT 10SM SCT018 26/19 A2996 RMK AO2 SLP154 T02560189


Station Type Date Time Source
KLCH Decoded METAR 2019/04/24 15:53 UTC NOAA

LAKE CHARLES REGIONAL AIRPORT , LA, United States (KLCH) 30-12N 093-23W 3M
Apr 24, 2019 - 11:53 AM EDT / 2019.04.24 1553 UTC
Wind: from the SE (140 degrees) at 14 MPH (12 KT):0
Visibility: 10 mile(s):0
Sky conditions: partly cloudy
Temperature: 78.1 F (25.6 C)
Dew Point: 66.0 F (18.9 C)
Relative Humidity: 66%
Pressure (altimeter): 29.96 in. Hg (1014 hPa)
ob: KLCH 241553Z 14012KT 10SM SCT018 26/19 A2996 RMK AO2 SLP154 T02560189
cycle: 16

Station Type Date Time Source
KLCH TAF 2019/04/24 14:06 UTC NOAA

TAF
AMD KLCH 241404Z 2414/2512 13010KT P6SM SCT006 BKN200
FM241600 15014G22KT P6SM SCT025 BKN035
FM250100 15011KT P6SM VCTS SCT025 OVC035CB
TEMPO 2503/2507 3SM -TSRA OVC025CB
FM250700 15014KT 3SM -TSRA OVC025CB
TEMPO 2507/2511 VRB25G35KT +TSRA OVC008CB

Example: see airport list